createdAt,value
2018-05-21T00:03:04.849Z,10.84
2018-05-21T00:08:59.770Z,8.85
2018-05-21T00:14:54.837Z,8.59
2018-05-21T00:20:49.825Z,8.62
2018-05-21T00:26:44.791Z,8.71
2018-05-21T00:32:39.808Z,6.26
2018-05-21T00:38:34.846Z,8.08
2018-05-21T00:44:29.839Z,7.91
2018-05-21T00:50:24.925Z,9.15
2018-05-21T00:56:19.880Z,7.86
2018-05-21T01:02:14.843Z,9.76
2018-05-21T01:08:09.879Z,7.5
2018-05-21T01:14:04.885Z,8.02
2018-05-21T01:19:59.875Z,9.93
2018-05-21T01:25:54.874Z,8.52
2018-05-21T01:31:49.812Z,8.29
2018-05-21T01:37:44.916Z,8.31
2018-05-21T01:43:39.863Z,9.89
2018-05-21T01:49:34.838Z,9.22
2018-05-21T01:55:29.886Z,10.07
2018-05-21T02:01:24.851Z,10.26
2018-05-21T02:07:19.858Z,8.35
2018-05-21T02:13:14.949Z,7.38
2018-05-21T02:19:09.912Z,7.82
2018-05-21T02:25:04.940Z,9.24
2018-05-21T02:30:59.946Z,10.61
2018-05-21T02:36:54.927Z,8.48
2018-05-21T02:42:49.930Z,8.45
2018-05-21T02:48:44.973Z,10
2018-05-21T02:54:39.961Z,9.15
2018-05-21T03:00:34.934Z,9.49
2018-05-21T03:06:29.977Z,8.7
2018-05-21T03:12:24.929Z,9.08
2018-05-21T03:18:19.927Z,9.17
2018-05-21T03:24:14.925Z,8.83
2018-05-21T03:30:09.923Z,10.15
2018-05-21T03:36:04.900Z,11.7
2018-05-21T03:41:59.937Z,9.67
2018-05-21T03:47:54.961Z,7.5
2018-05-21T03:53:50.068Z,9.42
2018-05-21T03:59:44.944Z,9.36
2018-05-21T04:05:39.923Z,10.51
2018-05-21T04:11:34.956Z,9.82
2018-05-21T04:17:29.935Z,11.93
2018-05-21T04:23:24.997Z,10.03
2018-05-21T04:29:19.999Z,11.23
2018-05-21T04:35:14.988Z,9.45
2018-05-21T04:41:10.269Z,8.97
2018-05-21T04:47:05.000Z,10.82
2018-05-21T04:53:00.048Z,10.82
2018-05-21T04:58:54.970Z,9.73
2018-05-21T05:04:49.984Z,11.44
2018-05-21T05:10:45.060Z,12.1
2018-05-21T05:16:40.002Z,11.65
2018-05-21T05:22:35.026Z,9.69
2018-05-21T05:28:30.029Z,11.99
2018-05-21T05:34:25.007Z,9.43
2018-05-21T05:40:20.013Z,12.28
2018-05-21T05:46:15.024Z,11.88
2018-05-21T05:52:10.036Z,10.98
2018-05-21T05:58:05.055Z,14.53
2018-05-21T06:04:00.058Z,12.79
2018-05-21T06:09:55.086Z,10.55
2018-05-21T06:15:50.038Z,9.34
2018-05-21T06:21:45.273Z,10.05
2018-05-21T06:27:40.054Z,10.33
2018-05-21T06:33:35.071Z,11.23
2018-05-21T06:39:30.150Z,10.57
2018-05-21T06:45:25.070Z,11.58
2018-05-21T06:51:20.080Z,11.06
2018-05-21T06:57:15.037Z,12.03
2018-05-21T07:03:10.102Z,10.46
2018-05-21T07:09:05.080Z,10.22
2018-05-21T07:15:00.051Z,10.7
2018-05-21T07:20:55.106Z,10.21
2018-05-21T07:26:50.081Z,8.39
2018-05-21T07:32:45.110Z,63.42
2018-05-21T07:38:40.194Z,37.75
2018-05-21T07:44:35.174Z,28.82
2018-05-21T07:50:30.102Z,57.13
2018-05-21T07:56:25.126Z,38.91
2018-05-21T08:02:20.161Z,20.25
2018-05-21T08:08:15.093Z,28.04
2018-05-21T08:14:10.159Z,28.32
2018-05-21T08:20:05.126Z,11.43
2018-05-21T08:26:00.112Z,9.93
2018-05-21T08:31:55.215Z,7.96
2018-05-21T08:37:50.136Z,7.77
2018-05-21T08:43:45.141Z,6.11
2018-05-21T08:49:40.178Z,8.16
2018-05-21T08:55:35.142Z,7.9
2018-05-21T09:01:30.146Z,7.77
2018-05-21T09:07:25.148Z,8.15
2018-05-21T09:13:20.161Z,6.45
2018-05-21T09:19:15.146Z,7.7
2018-05-21T09:25:10.146Z,7.32
2018-05-21T09:31:05.214Z,7.73
2018-05-21T09:37:00.151Z,8.02
2018-05-21T09:42:55.195Z,6.95
2018-05-21T09:48:50.203Z,8.37
2018-05-21T09:54:45.212Z,9.28
2018-05-21T10:00:40.228Z,6.36
2018-05-21T10:06:35.176Z,6.66
2018-05-21T10:12:30.272Z,5.36
2018-05-21T10:18:25.245Z,5.26
2018-05-21T10:24:20.199Z,8.04
2018-05-21T10:30:15.220Z,8.49
2018-05-21T10:36:10.245Z,5.93
2018-05-21T10:42:05.248Z,8.03
2018-05-21T10:48:00.223Z,5.83
2018-05-21T10:53:55.278Z,6.33
2018-05-21T10:59:50.240Z,7.28
2018-05-21T11:05:45.232Z,6.07
2018-05-21T11:11:40.251Z,8.03
2018-05-21T11:17:35.285Z,7.62
2018-05-21T11:23:30.272Z,5.95
2018-05-21T11:29:25.273Z,5.65
2018-05-21T11:35:20.315Z,5.51
2018-05-21T11:41:15.300Z,5.01
2018-05-21T11:47:10.307Z,6.85
2018-05-21T11:53:05.396Z,6.72
2018-05-21T11:59:00.319Z,5.49
2018-05-21T12:04:55.319Z,6.38
2018-05-21T12:10:50.311Z,7.3
2018-05-21T12:16:45.328Z,7.95
2018-05-21T12:22:40.333Z,8.34
2018-05-21T12:28:35.403Z,9.25
2018-05-21T12:34:30.322Z,7.89
2018-05-21T12:40:25.377Z,7.71
2018-05-21T12:46:20.371Z,13.33
2018-05-21T12:52:15.390Z,9.87
2018-05-21T12:58:10.360Z,7.49
2018-05-21T13:04:05.353Z,10.75
2018-05-21T13:10:00.390Z,12.04
2018-05-21T13:15:55.418Z,6.44
2018-05-21T13:21:50.391Z,9.99
2018-05-21T13:27:45.399Z,10.28
2018-05-21T13:33:40.369Z,8.18
2018-05-21T14:03:15.367Z,9.73
2018-05-21T14:03:15.458Z,9.5
2018-05-21T14:03:15.469Z,9.5
2018-05-21T14:03:15.496Z,9.5
2018-05-21T14:03:15.505Z,9.5
2018-05-21T14:09:10.421Z,13.19
2018-05-21T14:15:05.378Z,11.63
2018-05-21T14:21:00.396Z,12.19
2018-05-21T14:26:55.417Z,15.72
2018-05-21T14:32:50.384Z,12.3
2018-05-21T14:38:45.401Z,10.81
2018-05-21T14:44:40.404Z,14.75
2018-05-21T14:50:35.430Z,12.83
2018-05-21T14:56:30.413Z,11.47
2018-05-21T15:02:25.388Z,11.15
2018-05-21T15:08:20.465Z,15.27
2018-05-21T15:14:15.436Z,12.5
2018-05-21T15:20:10.438Z,11.16
2018-05-21T15:26:05.436Z,13.6
2018-05-21T15:32:00.468Z,16.82
2018-05-21T15:37:55.485Z,20.15
2018-05-21T15:43:50.430Z,20.03
2018-05-21T15:49:45.408Z,19.29
2018-05-21T15:55:40.449Z,16.55
2018-05-21T16:01:35.449Z,16.93
2018-05-21T16:16:21.683Z,16.81
2018-05-21T16:22:16.661Z,17.2
2018-05-21T16:28:11.735Z,14.56
2018-05-21T16:34:06.664Z,14.12
2018-05-21T16:40:01.804Z,12.78
2018-05-21T16:45:56.704Z,21.07
2018-05-21T16:51:51.687Z,19.8
2018-05-21T16:57:46.670Z,23.81
2018-05-21T17:03:41.690Z,22.38
2018-05-21T17:09:36.720Z,20.6
2018-05-21T17:15:31.775Z,19.33
2018-05-21T17:21:26.699Z,19.59
2018-05-21T17:27:21.739Z,18.37
2018-05-21T17:33:16.692Z,20.35
2018-05-21T17:39:11.739Z,22.5
2018-05-21T17:45:06.709Z,20.74
2018-05-21T17:51:01.761Z,20.1
2018-05-21T17:56:56.735Z,18.46
2018-05-21T18:02:51.735Z,15.63
2018-05-21T18:08:46.775Z,16.71
2018-05-21T18:14:41.832Z,15.11
2018-05-21T18:20:36.752Z,21.19
2018-05-21T18:26:31.749Z,17.26
2018-05-21T18:32:26.795Z,17.79
2018-05-21T18:38:21.754Z,19.5
2018-05-21T18:44:16.754Z,18
2018-05-21T18:50:11.757Z,22.29
2018-05-21T18:56:06.809Z,18.38
2018-05-21T19:02:01.780Z,21.13
2018-05-21T19:07:56.791Z,17.66
2018-05-21T19:13:51.767Z,20.39
2018-05-21T19:19:46.800Z,23.66
2018-05-21T19:25:41.799Z,20.68
2018-05-21T19:31:36.797Z,21.39
2018-05-21T19:37:31.798Z,20.02
2018-05-21T19:43:26.816Z,23.02
2018-05-21T19:49:21.832Z,23.57
2018-05-21T19:55:16.790Z,17.71
2018-05-21T20:01:11.798Z,24.85
2018-05-21T20:07:06.820Z,18.17
2018-05-21T20:13:01.813Z,17.17
2018-05-21T20:18:56.836Z,19.43
2018-05-21T20:24:51.847Z,21.76
2018-05-21T20:30:46.825Z,21.13
2018-05-21T20:36:41.842Z,24.11
2018-05-21T20:42:36.846Z,31.01
2018-05-21T20:48:31.841Z,26.92
2018-05-21T20:54:26.839Z,22.4
2018-05-21T21:00:21.857Z,27.87
2018-05-21T21:06:16.828Z,27.33
2018-05-21T21:12:11.900Z,26.52
2018-05-21T21:18:06.858Z,22.21
2018-05-21T21:24:01.918Z,25.21
2018-05-21T21:29:56.850Z,26.07
2018-05-21T21:35:51.879Z,25.96
2018-05-21T21:41:46.852Z,26.1
2018-05-21T21:47:41.880Z,23.95
2018-05-21T21:53:36.874Z,23.48
2018-05-21T21:59:31.911Z,23.54
2018-05-21T22:05:26.896Z,25.88
2018-05-21T22:11:21.896Z,30.33
2018-05-21T22:17:16.902Z,30.61
2018-05-21T22:23:11.912Z,30.35
2018-05-21T22:29:06.872Z,26.35
2018-05-21T22:35:01.908Z,27.12
2018-05-21T22:40:56.889Z,31.96
2018-05-21T22:46:51.958Z,34.12
2018-05-21T22:52:46.906Z,33.83
2018-05-21T22:58:41.908Z,29.69
2018-05-21T23:04:36.914Z,33.67
2018-05-21T23:10:31.939Z,29.78
2018-05-21T23:16:26.933Z,25.11
2018-05-21T23:22:21.946Z,29.31
2018-05-21T23:28:16.938Z,30.67
2018-05-21T23:34:11.965Z,29.25
2018-05-21T23:40:07.014Z,28.78
2018-05-21T23:46:01.964Z,31.2
2018-05-21T23:51:56.960Z,28.7
2018-05-21T23:57:51.965Z,29.58
